Time;durP1;ratioP1;P1;durP2;ratioP2;P2;SDS_P1;SDS_P2;PMS_P1;PMS_P2;Temp;Humidity;BMP_temperature;BMP_pressure;BME280_temperature;BME280_humidity;BME280_pressure;Samples;Min_cycle;Max_cycle;Signal;HPM_P1;HPM_P2
2023/09/23 00:01:20;;;;;;;3.60;2.30;;;13.80;94.40;;;;;;5041176;28;20017;-77
2023/09/23 00:03:47;;;;;;;4.13;2.58;;;13.80;94.70;;;;;;5041177;28;20032;-77
2023/09/23 00:06:12;;;;;;;4.20;2.38;;;13.70;94.70;;;;;;5057527;28;20021;-77
2023/09/23 00:08:39;;;;;;;3.75;2.45;;;13.60;94.30;;;;;;5075092;28;20036;-77
2023/09/23 00:11:09;;;;;;;4.55;2.55;;;13.60;94.80;;;;;;5056917;28;20055;-76
2023/09/23 00:13:35;;;;;;;3.88;2.50;;;13.60;94.60;;;;;;5040737;28;20032;-76
2023/09/23 00:16:11;;;;;;;4.88;2.50;;;13.70;94.70;;;;;;5057496;28;20078;-77
2023/09/23 00:18:38;;;;;;;4.13;2.65;;;13.80;95.00;;;;;;5057326;28;20044;-77
2023/09/23 00:21:05;;;;;;;4.40;2.80;;;13.90;94.40;;;;;;5074875;28;20032;-76
2023/09/23 00:23:33;;;;;;;5.22;3.00;;;13.90;94.10;;;;;;5074797;28;20028;-77
2023/09/23 00:26:00;;;;;;;4.53;2.97;;;13.90;94.00;;;;;;5057474;28;20033;-76
2023/09/23 00:28:30;;;;;;;4.82;3.10;;;13.80;94.00;;;;;;5057052;28;20040;-76
2023/09/23 00:31:10;;;;;;;6.20;3.55;;;13.70;94.00;;;;;;5040975;28;20021;-77
2023/09/23 00:33:39;;;;;;;6.05;3.97;;;13.70;94.10;;;;;;5057756;28;20036;-77
2023/09/23 00:36:07;;;;;;;6.50;3.72;;;13.70;94.20;;;;;;5040861;28;20025;-77
2023/09/23 00:38:33;;;;;;;6.63;3.97;;;13.70;94.20;;;;;;5056903;28;20029;-77
2023/09/23 00:40:59;;;;;;;7.50;4.20;;;13.60;94.30;;;;;;5056818;28;20032;-77
2023/09/23 00:43:25;;;;;;;7.13;3.85;;;13.70;94.40;;;;;;5074360;28;20029;-77
2023/09/23 00:45:54;;;;;;;7.05;4.53;;;13.70;94.50;;;;;;5056772;28;20051;-76
2023/09/23 00:48:21;;;;;;;8.38;4.70;;;13.60;94.50;;;;;;5056401;28;20056;-77
2023/09/23 00:50:48;;;;;;;7.65;4.57;;;13.60;94.50;;;;;;5074059;28;20068;-76
2023/09/23 00:53:14;;;;;;;8.32;5.13;;;13.50;94.90;;;;;;5074241;28;20021;-77
2023/09/23 00:55:43;;;;;;;8.07;4.47;;;13.50;94.60;;;;;;5056542;28;20085;-77
2023/09/23 00:58:15;;;;;;;8.85;6.05;;;13.50;94.70;;;;;;5040136;28;20029;-77
2023/09/23 01:00:43;;;;;;;8.60;5.65;;;13.40;94.70;;;;;;5057043;28;20033;-77
2023/09/23 01:03:09;;;;;;;9.70;6.13;;;13.40;94.80;;;;;;5040669;28;20032;-76
2023/09/23 01:05:35;;;;;;;10.57;7.00;;;13.40;95.00;;;;;;5056489;28;20029;-77
2023/09/23 01:08:29;;;;;;;12.02;6.80;;;13.40;95.10;;;;;;5056284;28;20021;-76
2023/09/23 01:10:56;;;;;;;10.00;6.50;;;13.40;95.10;;;;;;5060122;28;20031;-77
2023/09/23 01:13:24;;;;;;;11.32;6.85;;;13.40;95.20;;;;;;5056138;28;20044;-76
2023/09/23 01:15:51;;;;;;;13.43;8.10;;;13.30;95.30;;;;;;5040024;28;20025;-76
2023/09/23 01:18:18;;;;;;;12.57;6.95;;;13.40;95.70;;;;;;5056328;28;20032;-76
2023/09/23 01:20:48;;;;;;;12.93;8.13;;;13.30;95.90;;;;;;5039463;28;20056;-76
2023/09/23 01:23:13;;;;;;;13.20;7.30;;;13.30;96.00;;;;;;5056215;28;20131;-76
2023/09/23 01:25:39;;;;;;;14.25;9.27;;;13.20;96.10;;;;;;5056041;28;20029;-77
2023/09/23 01:28:11;;;;;;;12.57;8.45;;;13.30;96.70;;;;;;5039628;28;20380;-76
2023/09/23 01:30:40;;;;;;;12.73;7.85;;;13.20;96.20;;;;;;5056722;28;20029;-77
2023/09/23 01:33:08;;;;;;;12.63;7.40;;;13.20;96.70;;;;;;5056611;28;20036;-77
2023/09/23 01:35:35;;;;;;;11.68;7.78;;;13.10;96.80;;;;;;5056171;28;20021;-76
2023/09/23 01:38:02;;;;;;;12.23;7.65;;;13.10;96.80;;;;;;5055729;28;20028;-76
2023/09/23 01:40:30;;;;;;;12.05;7.15;;;13.10;96.70;;;;;;5073412;28;20519;-76
2023/09/23 01:42:57;;;;;;;12.00;7.25;;;13.10;96.90;;;;;;5056338;28;20025;-77
2023/09/23 01:45:26;;;;;;;12.18;7.40;;;13.00;97.00;;;;;;5056037;28;20017;-77
2023/09/23 01:47:56;;;;;;;12.70;7.65;;;13.00;97.10;;;;;;5073469;28;20025;-76
2023/09/23 01:50:26;;;;;;;12.30;7.55;;;13.00;96.90;;;;;;5073120;28;20052;-76
2023/09/23 01:52:51;;;;;;;14.90;8.43;;;13.00;97.10;;;;;;5055583;28;20024;-76
2023/09/23 01:55:18;;;;;;;12.98;7.07;;;13.00;97.20;;;;;;5039116;28;20029;-76
2023/09/23 01:57:44;;;;;;;13.15;7.85;;;13.00;97.30;;;;;;5055597;28;20013;-77
2023/09/23 02:00:17;;;;;;;12.98;7.80;;;13.00;97.40;;;;;;5073227;28;20017;-76
2023/09/23 02:02:44;;;;;;;14.65;8.10;;;13.00;97.40;;;;;;5056713;28;20021;-77
2023/09/23 02:05:09;;;;;;;12.82;7.40;;;13.10;97.30;;;;;;5038958;28;20070;-77
2023/09/23 02:07:35;;;;;;;12.85;7.30;;;13.10;97.30;;;;;;5055578;28;20022;-77
2023/09/23 02:10:01;;;;;;;12.90;6.93;;;13.10;97.40;;;;;;5055280;28;20124;-76
2023/09/23 02:12:26;;;;;;;14.10;6.93;;;13.10;97.70;;;;;;5055522;28;20029;-76
2023/09/23 02:14:53;;;;;;;12.55;6.97;;;13.10;97.60;;;;;;5055349;28;20025;-77
2023/09/23 02:17:19;;;;;;;13.95;7.07;;;13.10;97.70;;;;;;5055551;28;20020;-76
2023/09/23 02:19:46;;;;;;;10.65;6.45;;;13.10;97.60;;;;;;5072963;28;20036;-76
2023/09/23 02:22:12;;;;;;;13.20;7.43;;;13.20;98.00;;;;;;5072883;28;20047;-77
2023/09/23 02:24:40;;;;;;;12.88;7.40;;;13.20;97.50;;;;;;5055367;28;20021;-76
2023/09/23 02:27:06;;;;;;;12.75;7.00;;;13.20;97.60;;;;;;5039105;28;20021;-76
2023/09/23 02:29:32;;;;;;;12.38;6.63;;;13.10;97.70;;;;;;5054998;28;20082;-76
2023/09/23 02:31:59;;;;;;;10.32;5.85;;;13.20;98.20;;;;;;5055444;28;20043;-77
2023/09/23 02:34:25;;;;;;;14.95;6.47;;;13.10;98.20;;;;;;5055603;28;20044;-76
2023/09/23 02:36:50;;;;;;;14.68;7.07;;;13.10;97.80;;;;;;5042665;28;20029;-76
2023/09/23 02:39:19;;;;;;;11.65;6.07;;;13.20;97.80;;;;;;5042431;28;20029;-76
2023/09/23 02:41:46;;;;;;;10.35;5.72;;;13.20;97.80;;;;;;5076565;28;20027;-76
2023/09/23 02:44:18;;;;;;;11.70;6.63;;;13.20;97.80;;;;;;5059137;28;20021;-76
2023/09/23 02:46:45;;;;;;;10.25;6.03;;;13.20;97.70;;;;;;5060296;28;20102;-77
2023/09/23 02:49:12;;;;;;;11.90;5.93;;;13.10;97.70;;;;;;5058650;28;20052;-77
2023/09/23 02:51:38;;;;;;;13.70;6.18;;;13.10;97.70;;;;;;5076511;28;20040;-76
2023/09/23 02:54:05;;;;;;;9.20;5.47;;;13.10;97.50;;;;;;5042571;28;20357;-76
2023/09/23 02:56:33;;;;;;;12.63;6.72;;;13.10;97.60;;;;;;5042486;28;20085;-76
2023/09/23 02:58:59;;;;;;;11.20;5.63;;;13.10;97.60;;;;;;5058638;28;20032;-76
2023/09/23 03:01:25;;;;;;;12.27;5.80;;;13.10;97.30;;;;;;5042130;28;20025;-76
2023/09/23 03:03:51;;;;;;;13.35;5.72;;;13.10;97.30;;;;;;5042292;28;20021;-76
2023/09/23 03:06:18;;;;;;;11.18;5.93;;;13.10;97.30;;;;;;5058654;28;20029;-77
2023/09/23 03:08:47;;;;;;;12.77;5.47;;;13.00;97.40;;;;;;5058719;28;20040;-76
2023/09/23 03:11:18;;;;;;;11.18;5.43;;;13.00;97.70;;;;;;5059115;28;20021;-77
2023/09/23 03:13:44;;;;;;;9.68;5.07;;;12.90;97.80;;;;;;5076156;28;20021;-77
2023/09/23 03:16:13;;;;;;;11.20;5.35;;;13.00;97.70;;;;;;5058444;28;20043;-77
2023/09/23 03:18:55;;;;;;;10.10;4.95;;;13.00;97.60;;;;;;5058821;28;20043;-76
2023/09/23 03:21:20;;;;;;;8.55;5.15;;;13.00;97.60;;;;;;5058446;28;20025;-77
2023/09/23 03:23:46;;;;;;;9.52;4.88;;;13.00;97.60;;;;;;5058320;28;20040;-77
2023/09/23 03:26:12;;;;;;;9.05;4.78;;;12.90;97.60;;;;;;5025398;28;20056;-77
2023/09/23 03:28:39;;;;;;;9.32;4.75;;;12.90;97.60;;;;;;5041720;28;20025;-76
2023/09/23 03:31:08;;;;;;;10.88;4.28;;;12.90;97.70;;;;;;5075667;28;20025;-76
2023/09/23 03:33:35;;;;;;;9.10;4.55;;;13.00;97.70;;;;;;5057922;28;20124;-77
2023/09/23 03:36:01;;;;;;;7.78;4.88;;;12.90;97.60;;;;;;5075694;28;20025;-77
2023/09/23 03:38:32;;;;;;;10.75;4.60;;;12.90;97.50;;;;;;5057917;28;20028;-76
2023/09/23 03:40:59;;;;;;;8.38;3.85;;;12.90;97.80;;;;;;5075631;28;20040;-77
2023/09/23 03:43:25;;;;;;;9.23;4.78;;;12.80;97.60;;;;;;5057877;28;20025;-77
2023/09/23 03:45:52;;;;;;;8.60;4.90;;;12.90;97.50;;;;;;5057554;28;20025;-76
2023/09/23 03:48:18;;;;;;;9.35;4.57;;;12.90;97.60;;;;;;5075082;28;20017;-76
2023/09/23 03:50:48;;;;;;;6.35;3.33;;;12.90;97.60;;;;;;5041206;28;20064;-76
2023/09/23 03:53:13;;;;;;;7.05;3.75;;;12.90;97.70;;;;;;5057793;28;20021;-76
2023/09/23 03:55:39;;;;;;;10.75;3.97;;;12.90;98.10;;;;;;5057789;28;20055;-76
2023/09/23 03:58:05;;;;;;;8.27;4.07;;;12.90;97.70;;;;;;5041106;28;20044;-76
2023/09/23 04:00:34;;;;;;;6.88;3.60;;;12.90;97.80;;;;;;5041172;28;20025;-77
2023/09/23 04:02:59;;;;;;;9.02;4.40;;;12.90;97.90;;;;;;5075221;28;20036;-76
2023/09/23 04:05:26;;;;;;;8.32;3.72;;;12.90;98.10;;;;;;5040932;28;20501;-76
2023/09/23 04:07:52;;;;;;;8.88;4.05;;;12.90;98.00;;;;;;5075137;28;20092;-77
2023/09/23 04:10:23;;;;;;;7.93;3.58;;;13.00;98.00;;;;;;5057511;28;20055;-76
2023/09/23 04:12:54;;;;;;;8.68;3.90;;;13.00;98.30;;;;;;5057357;28;20047;-76
2023/09/23 04:15:21;;;;;;;6.78;3.75;;;13.00;97.90;;;;;;5057941;28;20017;-76
2023/09/23 04:17:47;;;;;;;9.43;4.03;;;13.00;97.80;;;;;;5040849;28;20029;-76
2023/09/23 04:20:14;;;;;;;6.05;3.63;;;13.00;97.80;;;;;;5040713;28;20036;-76
2023/09/23 04:22:41;;;;;;;8.25;3.85;;;13.00;97.80;;;;;;5074844;28;20029;-76
2023/09/23 04:25:10;;;;;;;7.35;3.88;;;12.90;97.60;;;;;;5040815;28;20176;-76
2023/09/23 04:27:37;;;;;;;5.45;3.58;;;12.90;98.00;;;;;;5057100;28;20021;-76
2023/09/23 04:30:11;;;;;;;8.65;4.20;;;12.90;97.60;;;;;;5057058;28;20025;-77
2023/09/23 04:32:41;;;;;;;6.45;3.45;;;12.90;97.60;;;;;;5056961;28;20021;-77
2023/09/23 04:35:12;;;;;;;8.60;4.40;;;12.90;97.60;;;;;;5056943;28;20021;-77
2023/09/23 04:37:38;;;;;;;8.20;3.78;;;12.80;97.70;;;;;;5040600;28;20422;-76
2023/09/23 04:40:12;;;;;;;6.95;3.33;;;12.90;97.70;;;;;;5040349;28;20037;-77
2023/09/23 04:42:41;;;;;;;6.60;3.70;;;12.90;97.70;;;;;;5056859;28;20116;-76
2023/09/23 04:45:09;;;;;;;8.00;3.55;;;13.00;97.70;;;;;;5056725;28;20029;-77
2023/09/23 04:47:35;;;;;;;8.35;4.05;;;13.00;97.70;;;;;;5040227;28;20045;-77
2023/09/23 04:50:04;;;;;;;5.60;4.00;;;13.00;97.60;;;;;;5074073;28;20045;-76
2023/09/23 04:52:29;;;;;;;7.03;3.90;;;13.00;97.50;;;;;;5056705;28;20018;-77
2023/09/23 04:54:55;;;;;;;7.47;3.95;;;12.90;97.50;;;;;;5023663;28;20059;-77
2023/09/23 04:57:21;;;;;;;6.88;3.63;;;12.90;97.70;;;;;;5056659;28;20040;-76
2023/09/23 04:59:47;;;;;;;5.97;3.47;;;12.90;97.80;;;;;;5039998;28;20023;-76
2023/09/23 05:02:15;;;;;;;7.07;3.60;;;12.90;97.80;;;;;;5056563;28;20037;-76
2023/09/23 05:04:41;;;;;;;6.95;3.45;;;12.90;97.80;;;;;;5040140;28;20036;-76
2023/09/23 05:07:06;;;;;;;7.10;3.58;;;12.90;97.70;;;;;;5056414;28;20045;-76
2023/09/23 05:09:32;;;;;;;7.57;3.30;;;12.80;97.70;;;;;;5056302;28;20088;-76
2023/09/23 05:11:58;;;;;;;7.03;3.22;;;12.80;97.70;;;;;;5039731;28;20036;-77
2023/09/23 05:14:26;;;;;;;6.72;3.20;;;12.80;97.70;;;;;;5056082;28;20032;-77
2023/09/23 05:16:52;;;;;;;7.07;2.97;;;12.80;97.60;;;;;;5039985;28;20021;-76
2023/09/23 05:19:22;;;;;;;5.65;3.00;;;12.80;97.60;;;;;;5039680;28;20097;-77
2023/09/23 05:21:50;;;;;;;8.55;3.38;;;12.80;97.60;;;;;;5057059;28;20048;-76
2023/09/23 05:24:15;;;;;;;5.88;3.58;;;12.80;97.50;;;;;;5039809;28;20618;-76
2023/09/23 05:26:42;;;;;;;8.85;3.72;;;12.80;97.50;;;;;;5056145;28;20021;-76
2023/09/23 05:29:08;;;;;;;5.70;3.20;;;12.80;97.60;;;;;;5056249;28;20017;-76
2023/09/23 05:31:36;;;;;;;6.03;3.58;;;12.80;97.40;;;;;;5039356;28;20025;-77
2023/09/23 05:34:03;;;;;;;11.60;4.30;;;12.70;97.70;;;;;;5056267;28;20052;-76
2023/09/23 05:36:29;;;;;;;6.95;3.40;;;12.70;97.90;;;;;;5073484;28;20104;-77
2023/09/23 05:38:54;;;;;;;6.60;3.50;;;12.70;97.80;;;;;;5055802;28;20036;-76
2023/09/23 05:41:21;;;;;;;6.43;3.80;;;12.70;98.00;;;;;;5055814;28;20032;-76
2023/09/23 05:43:49;;;;;;;7.43;3.38;;;12.70;98.10;;;;;;5039619;28;20021;-76
2023/09/23 05:46:14;;;;;;;5.80;3.05;;;12.70;98.30;;;;;;5039433;28;20052;-76
2023/09/23 05:48:40;;;;;;;7.45;3.28;;;12.70;98.30;;;;;;5055711;28;20037;-76
2023/09/23 05:51:06;;;;;;;6.43;3.40;;;12.70;98.40;;;;;;5073341;28;20102;-76
2023/09/23 05:53:33;;;;;;;5.93;3.15;;;12.70;98.40;;;;;;5055574;28;20016;-76
2023/09/23 05:56:00;;;;;;;6.88;3.40;;;12.70;98.40;;;;;;5039290;28;20024;-76
2023/09/23 05:58:25;;;;;;;5.22;3.60;;;12.70;98.80;;;;;;5055584;28;20017;-76
2023/09/23 06:00:51;;;;;;;6.65;3.25;;;12.60;98.50;;;;;;5038971;28;20025;-76
2023/09/23 06:03:17;;;;;;;6.57;3.70;;;12.70;98.40;;;;;;5073122;28;20024;-77
2023/09/23 06:05:44;;;;;;;6.88;3.67;;;12.70;98.40;;;;;;5055396;28;20017;-77
2023/09/23 06:08:12;;;;;;;6.55;3.38;;;12.70;98.40;;;;;;5055626;28;20088;-76
2023/09/23 06:10:44;;;;;;;6.63;3.42;;;12.70;98.40;;;;;;5060205;28;20048;-76
2023/09/23 06:13:09;;;;;;;8.98;3.97;;;12.80;98.40;;;;;;5062027;28;20029;-77
2023/09/23 06:15:35;;;;;;;7.60;3.35;;;12.80;98.30;;;;;;5029038;28;20040;-77
2023/09/23 06:18:01;;;;;;;5.97;3.47;;;12.80;98.70;;;;;;5079652;28;20036;-76
2023/09/23 06:20:27;;;;;;;5.93;2.95;;;12.80;98.40;;;;;;5079660;28;20021;-76
2023/09/23 06:22:53;;;;;;;7.55;3.30;;;12.90;98.70;;;;;;5062105;28;20044;-77
2023/09/23 06:25:19;;;;;;;6.15;3.50;;;12.90;98.30;;;;;;5045457;28;20033;-77
2023/09/23 06:27:45;;;;;;;7.30;3.40;;;12.80;98.70;;;;;;5045518;28;20040;-77
2023/09/23 06:30:15;;;;;;;6.25;2.72;;;12.80;98.50;;;;;;5079529;28;20055;-77
2023/09/23 06:32:41;;;;;;;4.80;2.75;;;12.90;98.60;;;;;;5045667;28;20045;-76
2023/09/23 06:35:08;;;;;;;6.38;3.15;;;12.90;98.60;;;;;;5061837;28;20031;-76
2023/09/23 06:37:33;;;;;;;7.30;3.22;;;12.80;98.70;;;;;;5045437;28;20092;-77
2023/09/23 06:40:00;;;;;;;7.35;3.13;;;12.90;99.10;;;;;;5045569;28;20060;-77
2023/09/23 06:42:25;;;;;;;6.90;3.08;;;12.80;98.90;;;;;;5061878;28;20025;-77
2023/09/23 06:44:51;;;;;;;6.70;3.40;;;12.90;99.00;;;;;;5045104;28;20025;-77
2023/09/23 06:47:17;;;;;;;7.47;3.45;;;12.90;99.30;;;;;;5045323;28;20060;-77
2023/09/23 06:49:43;;;;;;;7.03;3.58;;;12.90;98.90;;;;;;5044853;28;20049;-77
2023/09/23 06:52:08;;;;;;;7.15;3.17;;;13.00;99.00;;;;;;5028736;28;20029;-77
2023/09/23 06:54:34;;;;;;;6.18;3.25;;;13.00;99.00;;;;;;5045083;28;20098;-77
2023/09/23 06:56:59;;;;;;;6.55;3.10;;;13.00;99.00;;;;;;5061617;28;20056;-77
2023/09/23 06:59:25;;;;;;;7.15;3.50;;;13.00;99.00;;;;;;5028921;28;20032;-77
2023/09/23 07:01:52;;;;;;;7.15;3.40;;;13.00;99.10;;;;;;5061596;28;20047;-77
2023/09/23 07:04:17;;;;;;;6.22;3.25;;;13.10;99.40;;;;;;5045164;28;20033;-77
2023/09/23 07:06:43;;;;;;;6.25;3.20;;;13.00;99.20;;;;;;5028601;28;20025;-77
2023/09/23 07:09:08;;;;;;;7.65;3.15;;;13.10;99.20;;;;;;5061521;28;20068;-76
2023/09/23 07:11:34;;;;;;;7.70;3.20;;;13.10;99.30;;;;;;5061462;28;20033;-76
2023/09/23 07:14:03;;;;;;;5.68;3.15;;;13.10;99.30;;;;;;5045154;28;20035;-77
2023/09/23 07:16:29;;;;;;;6.38;3.47;;;13.20;99.70;;;;;;5045303;28;20148;-77
2023/09/23 07:18:54;;;;;;;5.55;3.50;;;13.30;99.60;;;;;;5061387;28;20049;-76
2023/09/23 07:21:20;;;;;;;6.57;3.38;;;13.30;99.50;;;;;;5076375;28;20018;-76
2023/09/23 07:23:46;;;;;;;7.78;3.40;;;13.30;99.60;;;;;;5058301;28;20131;-77
2023/09/23 07:26:20;;;;;;;6.65;3.08;;;13.30;99.70;;;;;;5076072;28;20028;-76
2023/09/23 07:28:45;;;;;;;6.30;3.20;;;13.40;99.50;;;;;;5075899;28;20032;-75
2023/09/23 07:31:12;;;;;;;8.40;4.40;;;13.50;99.60;;;;;;5075685;28;20033;-76
2023/09/23 07:33:37;;;;;;;7.72;3.00;;;13.60;99.70;;;;;;5057709;28;20020;-75
2023/09/23 07:36:13;;;;;;;6.95;3.13;;;13.60;99.30;;;;;;5058100;28;20025;-76
2023/09/23 07:38:39;;;;;;;6.85;3.33;;;13.60;99.90;;;;;;5057958;28;20492;-78
2023/09/23 07:41:06;;;;;;;6.00;3.30;;;13.70;99.80;;;;;;5057983;28;20055;-76
2023/09/23 07:43:32;;;;;;;7.75;3.17;;;13.80;99.60;;;;;;5041472;28;20032;-77
2023/09/23 07:45:58;;;;;;;6.63;2.90;;;13.80;99.60;;;;;;5041486;28;20032;-77
2023/09/23 07:48:23;;;;;;;6.65;3.55;;;13.80;99.60;;;;;;5057831;28;20029;-76
2023/09/23 07:50:50;;;;;;;7.50;3.35;;;13.90;99.30;;;;;;5075212;28;20053;-77
2023/09/23 07:53:15;;;;;;;6.28;3.25;;;13.90;99.30;;;;;;5057940;28;20049;-76
2023/09/23 07:55:43;;;;;;;5.78;3.17;;;14.00;99.40;;;;;;5057714;28;20060;-76
2023/09/23 07:58:09;;;;;;;9.15;3.83;;;14.00;99.30;;;;;;5041366;28;20021;-77
2023/09/23 08:00:35;;;;;;;4.90;3.20;;;14.00;99.00;;;;;;5041222;28;20037;-76
2023/09/23 08:03:00;;;;;;;5.32;3.10;;;14.10;98.70;;;;;;5057744;28;20036;-77
2023/09/23 08:05:26;;;;;;;7.75;3.47;;;14.10;99.10;;;;;;5024664;28;20029;-77
2023/09/23 08:07:52;;;;;;;5.97;3.70;;;14.20;99.30;;;;;;5041054;28;20025;-77
2023/09/23 08:10:18;;;;;;;7.07;3.35;;;14.20;99.10;;;;;;5040779;28;20100;-77
2023/09/23 08:12:47;;;;;;;6.40;3.60;;;14.30;99.30;;;;;;5074964;28;20032;-77
2023/09/23 08:15:13;;;;;;;8.10;3.92;;;14.30;99.00;;;;;;5057342;28;20028;-77
2023/09/23 08:17:39;;;;;;;8.15;4.07;;;14.40;99.20;;;;;;5057345;28;20032;-77
2023/09/23 08:20:20;;;;;;;8.02;3.63;;;14.50;99.30;;;;;;5057422;28;20029;-77
2023/09/23 08:22:49;;;;;;;7.05;3.33;;;14.60;98.80;;;;;;5042278;28;20055;-76
2023/09/23 08:25:15;;;;;;;7.95;3.78;;;14.60;98.20;;;;;;5057125;28;20029;-77
2023/09/23 08:27:41;;;;;;;6.00;3.13;;;14.60;98.50;;;;;;5057249;28;20373;-77
2023/09/23 08:30:11;;;;;;;6.18;3.38;;;14.70;97.90;;;;;;5057407;28;20025;-77
2023/09/23 08:32:37;;;;;;;6.70;3.78;;;14.70;97.20;;;;;;5056685;28;20036;-77
2023/09/23 08:35:05;;;;;;;8.40;3.83;;;14.80;97.60;;;;;;5057064;28;20105;-77
2023/09/23 08:37:31;;;;;;;6.22;3.75;;;14.80;98.10;;;;;;5040944;28;20017;-77
2023/09/23 08:39:56;;;;;;;6.18;3.50;;;14.90;97.50;;;;;;5074476;28;20092;-77
2023/09/23 08:42:25;;;;;;;9.77;3.75;;;14.90;97.70;;;;;;5074637;28;20029;-77
2023/09/23 08:44:51;;;;;;;8.27;3.95;;;15.00;97.10;;;;;;5057343;28;20056;-77
2023/09/23 08:47:18;;;;;;;8.07;3.08;;;15.00;97.20;;;;;;5040241;28;20048;-76
2023/09/23 08:49:47;;;;;;;6.90;3.33;;;14.90;97.10;;;;;;5056398;28;20041;-76
2023/09/23 08:52:13;;;;;;;5.47;3.15;;;15.00;97.30;;;;;;5074314;28;20024;-77
2023/09/23 08:54:39;;;;;;;8.77;3.50;;;15.00;97.00;;;;;;5040202;28;20036;-77
2023/09/23 08:57:05;;;;;;;6.00;3.33;;;15.00;97.10;;;;;;5056777;28;20029;-77
2023/09/23 08:59:31;;;;;;;7.35;3.95;;;15.00;97.30;;;;;;5023884;28;20021;-77
2023/09/23 09:01:57;;;;;;;5.45;3.20;;;15.00;96.90;;;;;;5056364;28;20025;-77
2023/09/23 09:04:24;;;;;;;6.30;3.25;;;15.10;97.00;;;;;;5039880;28;20055;-77
2023/09/23 09:06:55;;;;;;;7.38;3.40;;;15.10;97.00;;;;;;5074084;28;20020;-77
2023/09/23 09:09:20;;;;;;;5.80;3.28;;;15.10;97.00;;;;;;5039958;28;20021;-77
2023/09/23 09:11:48;;;;;;;7.45;3.50;;;15.20;97.10;;;;;;5056218;28;20108;-77
2023/09/23 09:14:15;;;;;;;9.38;3.30;;;15.30;96.40;;;;;;5073815;28;20033;-77
2023/09/23 09:16:41;;;;;;;5.53;3.63;;;15.40;97.00;;;;;;5056199;28;20013;-77
2023/09/23 09:19:06;;;;;;;7.95;3.70;;;15.50;96.40;;;;;;5039818;28;20021;-77
2023/09/23 09:21:34;;;;;;;9.23;3.13;;;15.50;96.00;;;;;;5073727;28;20160;-77
2023/09/23 09:24:00;;;;;;;4.68;2.88;;;15.50;96.30;;;;;;5056394;28;20089;-77
2023/09/23 09:26:25;;;;;;;5.90;2.90;;;15.50;96.10;;;;;;5055817;28;20033;-77
2023/09/23 09:28:51;;;;;;;6.97;3.03;;;15.60;96.20;;;;;;5039474;28;20036;-77
2023/09/23 09:31:18;;;;;;;5.32;3.00;;;15.60;96.70;;;;;;5039446;28;20025;-77
2023/09/23 09:33:50;;;;;;;5.88;3.00;;;15.80;97.00;;;;;;5055856;28;20048;-77
2023/09/23 09:36:21;;;;;;;7.03;3.50;;;15.80;96.20;;;;;;5055934;28;20024;-77
2023/09/23 09:38:53;;;;;;;6.68;2.97;;;15.80;96.00;;;;;;5055767;28;20085;-76
2023/09/23 09:41:42;;;;;;;5.43;3.42;;;15.80;96.10;;;;;;5056350;28;20032;-77
2023/09/23 09:44:08;;;;;;;7.50;3.58;;;15.80;96.10;;;;;;5072663;28;20029;-76
2023/09/23 09:46:35;;;;;;;5.40;3.03;;;15.70;95.80;;;;;;5055731;28;20032;-77
2023/09/23 09:49:02;;;;;;;4.70;2.95;;;15.70;95.50;;;;;;5055614;28;20036;-77
2023/09/23 09:51:30;;;;;;;7.00;3.50;;;15.80;96.00;;;;;;5055676;28;20037;-77
2023/09/23 09:53:56;;;;;;;7.50;3.47;;;15.90;96.30;;;;;;5055591;28;20036;-76
2023/09/23 09:56:23;;;;;;;5.90;3.78;;;16.00;95.80;;;;;;5055765;28;20029;-77
2023/09/23 09:58:49;;;;;;;7.68;3.80;;;15.90;95.20;;;;;;5055888;28;20021;-76
2023/09/23 10:01:14;;;;;;;5.95;3.65;;;15.90;95.20;;;;;;5039085;28;20033;-76
2023/09/23 10:03:42;;;;;;;5.68;3.95;;;15.80;95.10;;;;;;5039237;28;20488;-77
2023/09/23 10:06:08;;;;;;;5.35;3.30;;;15.80;95.50;;;;;;5039277;28;20047;-77
2023/09/23 10:08:38;;;;;;;4.13;3.15;;;15.70;95.10;;;;;;5055545;28;20033;-77
2023/09/23 10:11:08;;;;;;;6.43;3.85;;;15.70;95.00;;;;;;5038878;28;20075;-77
2023/09/23 10:13:34;;;;;;;6.40;3.63;;;15.70;95.70;;;;;;5055383;28;20033;-77
2023/09/23 10:16:17;;;;;;;5.63;3.75;;;15.90;96.10;;;;;;5072972;28;20051;-77
2023/09/23 10:18:43;;;;;;;7.43;3.83;;;16.00;95.90;;;;;;5055608;28;20021;-77
2023/09/23 10:21:22;;;;;;;6.50;3.80;;;16.10;95.90;;;;;;5038848;28;20029;-76
2023/09/23 10:23:51;;;;;;;7.43;3.80;;;16.20;95.40;;;;;;5055438;28;20092;-76
2023/09/23 10:26:23;;;;;;;6.90;3.63;;;16.20;94.90;;;;;;5055238;28;20048;-77
2023/09/23 10:29:00;;;;;;;5.53;3.47;;;16.20;94.30;;;;;;5055317;28;20032;-77
2023/09/23 10:31:32;;;;;;;5.63;3.17;;;16.10;94.70;;;;;;5072834;28;20534;-76
2023/09/23 10:34:05;;;;;;;4.70;3.15;;;16.20;94.40;;;;;;5055129;28;20013;-76
2023/09/23 10:36:30;;;;;;;7.15;3.33;;;16.20;94.30;;;;;;5072968;28;20017;-76
2023/09/23 10:38:57;;;;;;;4.38;3.10;;;16.10;94.50;;;;;;5038732;28;20484;-76
2023/09/23 10:41:34;;;;;;;5.05;3.03;;;16.10;94.90;;;;;;5055427;28;20093;-77
2023/09/23 10:44:04;;;;;;;5.22;2.88;;;16.10;94.40;;;;;;5055204;28;20025;-76
2023/09/23 10:46:32;;;;;;;7.10;3.33;;;16.10;94.50;;;;;;5072599;28;20087;-76
2023/09/23 10:49:01;;;;;;;5.30;2.88;;;16.10;94.00;;;;;;5038635;28;20101;-76
2023/09/23 10:51:27;;;;;;;6.28;3.58;;;16.10;94.60;;;;;;5039466;28;20037;-76
2023/09/23 10:53:54;;;;;;;5.70;3.22;;;16.20;94.40;;;;;;5055154;28;20044;-77
2023/09/23 10:56:22;;;;;;;4.68;3.50;;;16.40;95.20;;;;;;5074496;28;20032;-76
2023/09/23 10:58:51;;;;;;;7.90;3.80;;;16.50;94.30;;;;;;5059286;28;20028;-76
2023/09/23 11:01:23;;;;;;;8.40;3.67;;;16.50;94.60;;;;;;5042480;28;20029;-76
2023/09/23 11:03:51;;;;;;;8.30;4.00;;;16.40;93.60;;;;;;5059929;28;20057;-77
2023/09/23 11:06:17;;;;;;;6.70;3.78;;;16.50;93.60;;;;;;5058980;28;20029;-77
2023/09/23 11:08:43;;;;;;;8.63;4.30;;;16.50;93.80;;;;;;5076289;28;20037;-76
2023/09/23 11:11:11;;;;;;;5.47;4.00;;;16.60;93.50;;;;;;5025632;28;20032;-77
2023/09/23 11:13:37;;;;;;;7.90;3.47;;;16.70;93.80;;;;;;5058913;28;20040;-76
2023/09/23 11:16:09;;;;;;;7.43;3.60;;;16.60;94.00;;;;;;5042188;28;20428;-76
2023/09/23 11:18:38;;;;;;;8.45;3.55;;;16.60;93.80;;;;;;5076181;28;20044;-76
2023/09/23 11:21:05;;;;;;;6.55;3.47;;;16.70;93.50;;;;;;5076218;28;20089;-77
2023/09/23 11:23:32;;;;;;;6.43;3.65;;;16.80;94.00;;;;;;5058366;28;20045;-76
2023/09/23 11:25:59;;;;;;;6.90;3.38;;;16.80;93.60;;;;;;5058321;28;20025;-77
2023/09/23 11:28:26;;;;;;;7.72;4.05;;;16.80;93.90;;;;;;5058204;28;20025;-75
2023/09/23 11:30:53;;;;;;;7.53;4.13;;;16.80;93.70;;;;;;5075963;28;20088;-77
2023/09/23 11:33:18;;;;;;;7.00;4.00;;;17.00;93.40;;;;;;5075821;28;20021;-75
2023/09/23 11:35:45;;;;;;;8.90;3.70;;;16.90;92.90;;;;;;5058255;28;20048;-77
2023/09/23 11:38:11;;;;;;;5.88;4.45;;;17.00;93.20;;;;;;5058281;28;20021;-76
2023/09/23 11:40:37;;;;;;;4.70;3.85;;;17.10;93.00;;;;;;5075490;28;20086;-77
2023/09/23 11:43:03;;;;;;;5.20;3.75;;;17.20;92.40;;;;;;5058327;28;20060;-77
2023/09/23 11:45:30;;;;;;;7.88;3.95;;;17.40;91.70;;;;;;5041456;28;20055;-77
2023/09/23 11:47:56;;;;;;;5.57;4.13;;;17.30;90.70;;;;;;5075597;28;20076;-77
2023/09/23 11:50:31;;;;;;;7.40;4.43;;;17.50;92.00;;;;;;5057885;28;20376;-77
2023/09/23 11:52:57;;;;;;;7.03;4.13;;;17.70;92.10;;;;;;5059107;28;20021;-76
2023/09/23 11:55:23;;;;;;;5.43;4.28;;;17.90;91.70;;;;;;5024904;28;20049;-77
2023/09/23 11:57:49;;;;;;;7.55;5.00;;;18.00;91.40;;;;;;5025152;28;20017;-77
2023/09/23 12:00:16;;;;;;;8.93;4.43;;;18.10;91.00;;;;;;5041250;28;20104;-77
2023/09/23 12:02:42;;;;;;;6.15;4.15;;;18.00;91.30;;;;;;5041396;28;20047;-77
2023/09/23 12:05:08;;;;;;;7.20;4.07;;;17.90;90.70;;;;;;5075116;28;20025;-77
2023/09/23 12:07:35;;;;;;;6.85;4.25;;;17.80;90.50;;;;;;5040348;28;20036;-76
2023/09/23 12:10:04;;;;;;;5.40;3.83;;;17.60;90.70;;;;;;5075141;28;20025;-77
2023/09/23 12:12:31;;;;;;;7.45;4.63;;;17.60;91.70;;;;;;5057729;28;20032;-76
2023/09/23 12:14:56;;;;;;;6.57;4.35;;;17.70;90.90;;;;;;5075056;28;20028;-77
2023/09/23 12:17:22;;;;;;;6.63;4.22;;;17.80;91.00;;;;;;5074975;28;20387;-77
2023/09/23 12:19:48;;;;;;;6.40;4.47;;;17.90;90.80;;;;;;5075089;28;20032;-76
2023/09/23 12:22:15;;;;;;;8.20;4.53;;;18.00;90.70;;;;;;5057351;28;20056;-77
2023/09/23 12:24:45;;;;;;;7.97;4.32;;;17.90;90.10;;;;;;5074826;28;20019;-77
2023/09/23 12:27:11;;;;;;;6.85;4.38;;;17.80;90.10;;;;;;5057148;28;20047;-77
2023/09/23 12:29:37;;;;;;;5.13;4.03;;;17.60;90.70;;;;;;5074689;28;20036;-77
2023/09/23 12:32:07;;;;;;;6.00;4.10;;;17.50;91.20;;;;;;5074735;28;20064;-77
2023/09/23 12:34:33;;;;;;;7.95;4.75;;;17.40;91.50;;;;;;5057528;28;20508;-77
2023/09/23 12:36:58;;;;;;;8.88;4.53;;;17.40;91.00;;;;;;5057080;28;20029;-77
2023/09/23 12:39:24;;;;;;;6.63;4.63;;;17.30;91.20;;;;;;5074587;28;20071;-77
2023/09/23 12:41:51;;;;;;;6.60;4.75;;;17.30;91.20;;;;;;5056807;28;20032;-77
2023/09/23 12:44:19;;;;;;;5.85;4.38;;;17.30;91.40;;;;;;5040440;28;20036;-77
2023/09/23 12:46:46;;;;;;;6.35;4.53;;;17.40;91.20;;;;;;5056734;28;20025;-77